Time;durP1;ratioP1;P1;durP2;ratioP2;P2;SDS_P1;SDS_P2;PMS_P1;PMS_P2;Temp;Humidity;BMP_temperature;BMP_pressure;BME280_temperature;BME280_humidity;BME280_pressure;Samples;Min_cycle;Max_cycle;Signal;HPM_P1;HPM_P2
2022/10/15 00:00:49;;;;;;;93.28;22.40;;;;;;;15.97;70.72;99005.06;5110832;28;20047;-61
2022/10/15 00:03:16;;;;;;;65.68;21.65;;;;;;;15.97;70.76;99001.56;5112162;28;20574;-61
2022/10/15 00:05:43;;;;;;;41.13;22.33;;;;;;;15.99;70.93;99004.91;5112101;28;20158;-63
2022/10/15 00:08:10;;;;;;;32.83;22.10;;;;;;;15.99;70.75;98999.59;5111574;28;20648;-61
2022/10/15 00:10:37;;;;;;;31.25;21.10;;;;;;;16.00;70.84;98994.16;5112001;28;20043;-61
2022/10/15 00:13:04;;;;;;;90.03;22.48;;;;;;;16.01;70.79;98995.00;5111740;28;20087;-62
2022/10/15 00:15:31;;;;;;;33.05;21.33;;;;;;;16.01;70.84;98982.56;5111746;28;20484;-60
2022/10/15 00:17:58;;;;;;;66.07;22.65;;;;;;;16.03;70.84;98987.72;5111895;28;20040;-62
2022/10/15 00:20:24;;;;;;;33.22;21.85;;;;;;;16.04;70.93;98991.22;5111379;28;20083;-61
2022/10/15 00:22:51;;;;;;;33.47;23.58;;;;;;;16.03;70.89;98998.34;5111754;28;20052;-60
2022/10/15 00:25:17;;;;;;;34.72;22.30;;;;;;;16.04;70.78;98991.22;5111622;28;20085;-60
2022/10/15 00:27:44;;;;;;;37.00;22.92;;;;;;;16.04;70.83;98985.91;5111542;28;20051;-64
2022/10/15 00:30:11;;;;;;;33.63;23.52;;;;;;;16.05;70.90;98988.44;5108897;28;20089;-64
2022/10/15 00:32:38;;;;;;;32.10;22.63;;;;;;;16.06;70.93;98986.59;5110175;28;20043;-60
2022/10/15 00:35:05;;;;;;;32.83;23.83;;;;;;;16.07;70.86;98990.94;5111635;28;20052;-62
2022/10/15 00:37:32;;;;;;;34.63;24.25;;;;;;;16.07;70.70;98990.94;5110192;28;20078;-61
2022/10/15 00:39:58;;;;;;;34.13;23.92;;;;;;;16.06;70.61;98995.41;5111438;28;20039;-63
2022/10/15 00:42:25;;;;;;;34.15;23.08;;;;;;;16.06;70.60;99005.19;5118104;28;20134;-61
2022/10/15 00:44:57;;;;;;;33.60;23.50;;;;;;;16.04;70.83;98999.19;5118545;28;20059;-61
2022/10/15 00:47:43;;;;;;;33.78;24.08;;;;;;;16.01;71.15;99009.09;5117354;28;20043;-61
2022/10/15 00:50:14;;;;;;;36.47;24.88;;;;;;;16.05;70.70;99003.50;5116936;28;20074;-64
2022/10/15 00:53:01;;;;;;;36.28;23.80;;;;;;;16.03;70.69;98998.34;5117016;28;20055;-61
2022/10/15 00:55:31;;;;;;;36.88;24.52;;;;;;;16.04;70.58;99004.50;5118295;28;20083;-61
2022/10/15 00:58:04;;;;;;;38.17;24.30;;;;;;;16.00;70.51;99004.78;5118287;27;20441;-64
2022/10/15 01:00:32;;;;;;;;;;;;;;;16.00;70.83;99010.09;5117377;28;20089;-62
2022/10/15 01:02:58;;;;;;;33.58;21.30;;;;;;;16.04;69.99;99002.69;5118183;28;19920;-61
2022/10/15 01:05:25;;;;;;;36.92;23.35;;;;;;;16.00;70.08;98994.16;5118127;28;20051;-62
2022/10/15 01:07:52;;;;;;;37.65;23.05;;;;;;;15.97;70.19;98989.16;5117158;28;20104;-60
2022/10/15 01:10:20;;;;;;;42.85;24.80;;;;;;;15.96;70.25;98997.25;5117934;27;20149;-60
2022/10/15 01:12:57;;;;;;;36.92;23.67;;;;;;;15.92;70.48;98990.53;5118074;27;20059;-61
2022/10/15 01:15:28;;;;;;;35.95;23.35;;;;;;;15.93;70.15;98993.03;5116882;28;20075;-60
2022/10/15 01:18:13;;;;;;;36.42;23.98;;;;;;;15.89;70.34;98999.59;5118073;27;20176;-60
2022/10/15 01:20:52;;;;;;;42.10;24.23;;;;;;;15.89;70.24;98991.63;5118248;28;20097;-60
2022/10/15 01:23:36;;;;;;;36.50;22.40;;;;;;;15.84;70.43;98986.75;5118283;27;20081;-61
2022/10/15 01:26:44;;;;;;;37.70;24.63;;;;;;;15.84;70.49;98983.25;5117982;27;20512;-62
2022/10/15 01:29:51;;;;;;;37.17;22.60;;;;;;;15.82;70.36;98979.91;5106084;28;20048;-60
2022/10/15 01:32:22;;;;;;;38.85;23.73;;;;;;;15.83;70.05;98973.59;5116626;28;20132;-62
2022/10/15 01:35:06;;;;;;;38.67;23.55;;;;;;;15.80;70.21;98982.69;5116854;28;20116;-61
2022/10/15 01:37:40;;;;;;;42.65;25.20;;;;;;;15.78;70.14;98976.69;5117776;28;20491;-60
2022/10/15 01:40:13;;;;;;;42.25;24.23;;;;;;;15.77;70.10;98975.00;5116687;28;20059;-61
2022/10/15 01:42:53;;;;;;;43.08;24.05;;;;;;;15.75;70.13;98976.97;5116551;28;20097;-64
2022/10/15 01:45:28;;;;;;;38.15;24.23;;;;;;;15.74;70.05;98976.13;5117928;27;20055;-64
2022/10/15 01:47:59;;;;;;;47.03;24.40;;;;;;;15.73;69.97;98971.81;5118120;28;20040;-60
2022/10/15 01:50:29;;;;;;;43.80;24.30;;;;;;;15.70;70.15;98980.03;5117586;28;20101;-61
2022/10/15 01:52:59;;;;;;;43.70;25.63;;;;;;;15.69;70.08;98983.66;5113382;28;20471;-62
2022/10/15 01:55:29;;;;;;;45.10;25.77;;;;;;;15.67;70.11;98977.69;5113168;28;20083;-62
2022/10/15 01:57:57;;;;;;;35.85;22.65;;;;;;;15.65;69.77;98969.00;5114617;28;20122;-60
2022/10/15 02:00:24;;;;;;;41.60;25.58;;;;;;;15.64;70.00;98970.00;5114451;28;20140;-63
2022/10/15 02:02:51;;;;;;;41.15;24.40;;;;;;;15.61;69.81;98970.28;5114360;28;20513;-61
2022/10/15 02:05:33;;;;;;;39.65;24.55;;;;;;;15.56;70.09;98975.16;5114179;28;20147;-60
2022/10/15 02:08:21;;;;;;;36.72;22.60;;;;;;;15.55;69.74;98966.34;5114242;28;20102;-61
2022/10/15 02:10:55;;;;;;;38.97;23.42;;;;;;;15.52;70.02;98968.47;5114341;28;20089;-61
2022/10/15 02:13:31;;;;;;;43.05;24.13;;;;;;;15.49;69.85;98965.13;5114127;27;20430;-62
2022/10/15 02:16:04;;;;;;;38.17;24.33;;;;;;;15.45;70.00;98963.72;5112888;28;20101;-60
2022/10/15 02:18:56;;;;;;;40.97;25.45;;;;;;;15.45;69.84;98963.72;5113911;28;20063;-64
2022/10/15 02:21:39;;;;;;;41.33;23.23;;;;;;;15.40;70.12;98963.28;5105267;28;20077;-61
2022/10/15 02:24:16;;;;;;;35.25;21.92;;;;;;;15.39;70.08;98958.94;5114069;28;20285;-61
2022/10/15 02:26:44;;;;;;;39.00;23.40;;;;;;;15.38;69.56;98951.97;5112401;28;20039;-62
2022/10/15 02:29:15;;;;;;;43.83;25.42;;;;;;;15.35;69.78;98944.28;5113595;28;20476;-60
2022/10/15 02:31:49;;;;;;;45.55;25.90;;;;;;;15.32;69.77;98940.09;5114061;28;20071;-62
2022/10/15 02:34:18;;;;;;;42.20;24.63;;;;;;;15.30;69.50;98938.56;5112603;28;20077;-61
2022/10/15 02:36:47;;;;;;;43.08;24.50;;;;;;;15.27;69.83;98942.34;5112441;28;20048;-63
2022/10/15 02:39:18;;;;;;;40.65;23.55;;;;;;;15.24;69.91;98945.25;5112085;28;20044;-61
2022/10/15 02:41:47;;;;;;;42.88;25.58;;;;;;;15.23;69.81;98940.94;5112169;28;20112;-63
2022/10/15 02:44:13;;;;;;;41.17;25.52;;;;;;;15.21;69.78;98941.06;5112496;28;20043;-62
2022/10/15 02:46:40;;;;;;;46.90;28.35;;;;;;;15.19;69.84;98951.00;5113680;28;20104;-61
2022/10/15 02:49:07;;;;;;;42.95;25.45;;;;;;;15.16;69.85;98943.31;5113175;28;20083;-60
2022/10/15 02:51:35;;;;;;;42.20;25.88;;;;;;;15.14;69.97;98949.72;5113357;28;20105;-62
2022/10/15 02:54:03;;;;;;;47.97;27.55;;;;;;;15.11;70.08;98950.84;5113681;28;20100;-63
2022/10/15 02:56:30;;;;;;;44.20;26.45;;;;;;;15.09;70.08;98950.97;5113401;28;20044;-61
2022/10/15 02:58:57;;;;;;;42.47;24.77;;;;;;;15.07;70.06;98950.25;5113013;28;20553;-66
2022/10/15 03:01:23;;;;;;;44.42;26.17;;;;;;;15.05;70.12;98949.56;5113212;28;20142;-64
2022/10/15 03:03:50;;;;;;;46.90;26.50;;;;;;;15.04;70.12;98944.41;5112892;28;20100;-61
2022/10/15 03:06:17;;;;;;;44.00;26.55;;;;;;;15.03;70.39;98945.38;5113027;28;20075;-61
2022/10/15 03:08:43;;;;;;;43.40;26.90;;;;;;;15.03;70.48;98950.69;5113192;28;20047;-62
2022/10/15 03:11:10;;;;;;;42.03;25.80;;;;;;;15.02;70.56;98941.88;5112985;28;20476;-62
2022/10/15 03:13:38;;;;;;;44.63;27.38;;;;;;;15.03;70.71;98938.25;5111791;28;20071;-62
2022/10/15 03:16:06;;;;;;;46.40;26.85;;;;;;;15.03;70.66;98937.44;5111729;28;20092;-61
2022/10/15 03:18:33;;;;;;;45.67;27.10;;;;;;;15.04;70.83;98934.66;5111409;28;20400;-60
2022/10/15 03:21:05;;;;;;;46.90;27.63;;;;;;;15.04;70.76;98939.94;5112831;28;20511;-61
2022/10/15 03:23:32;;;;;;;47.03;27.98;;;;;;;15.05;70.71;98943.41;5113088;28;20112;-62
2022/10/15 03:26:04;;;;;;;42.17;26.48;;;;;;;15.06;70.68;98943.28;5112640;28;20169;-61
2022/10/15 03:28:30;;;;;;;43.42;27.23;;;;;;;15.06;70.67;98940.63;5112504;28;20143;-62
2022/10/15 03:30:57;;;;;;;42.90;26.52;;;;;;;15.06;70.52;98937.16;5112572;28;20057;-61
2022/10/15 03:33:24;;;;;;;41.95;25.80;;;;;;;15.03;70.52;98940.06;5112419;28;20130;-60
2022/10/15 03:35:51;;;;;;;44.85;26.15;;;;;;;15.01;70.62;98937.56;5112969;27;20060;-61
2022/10/15 03:38:18;;;;;;;45.42;26.92;;;;;;;15.01;70.67;98936.72;5112364;28;20047;-62
2022/10/15 03:40:45;;;;;;;43.65;27.35;;;;;;;15.00;70.65;98938.53;5112425;28;20055;-64
2022/10/15 03:43:12;;;;;;;46.88;25.90;;;;;;;15.00;70.95;98937.69;5112350;28;20055;-60
2022/10/15 03:45:39;;;;;;;42.47;25.60;;;;;;;14.98;70.78;98936.03;5112318;28;20044;-62
2022/10/15 03:48:06;;;;;;;40.60;23.17;;;;;;;14.98;70.80;98932.53;5112028;28;20097;-62
2022/10/15 03:50:33;;;;;;;56.28;25.80;;;;;;;14.98;71.00;98936.03;5112336;28;20079;-64
2022/10/15 03:53:03;;;;;;;71.82;22.85;;;;;;;14.96;71.08;98930.00;5110868;28;20496;-60
2022/10/15 03:55:30;;;;;;;59.83;24.38;;;;;;;14.98;71.25;98927.22;5110957;28;20051;-60
2022/10/15 03:57:56;;;;;;;44.10;23.25;;;;;;;14.98;71.05;98936.03;5112374;28;20454;-60
2022/10/15 04:00:23;;;;;;;38.00;24.85;;;;;;;14.99;71.05;98928.91;5111787;28;20511;-61
2022/10/15 04:02:49;;;;;;;79.90;25.00;;;;;;;15.00;71.10;98932.41;5111890;28;20104;-61
2022/10/15 04:05:16;;;;;;;67.93;19.80;;;;;;;15.02;71.04;98930.47;5112156;28;20674;-63
2022/10/15 04:07:43;;;;;;;53.60;24.67;;;;;;;15.02;70.98;98930.47;5093893;28;20051;-65
2022/10/15 04:10:09;;;;;;;36.83;24.33;;;;;;;15.02;71.00;98925.16;5111724;28;20472;-62
2022/10/15 04:12:36;;;;;;;41.97;25.08;;;;;;;15.01;71.00;98926.97;5111811;28;20090;-61
2022/10/15 04:15:03;;;;;;;42.20;23.50;;;;;;;15.01;70.81;98934.06;5111382;28;20051;-62
2022/10/15 04:17:30;;;;;;;56.97;24.38;;;;;;;15.02;70.95;98935.75;5112010;28;20488;-61
2022/10/15 04:19:57;;;;;;;65.00;23.33;;;;;;;15.01;71.13;98926.97;5111739;28;20097;-63
2022/10/15 04:22:23;;;;;;;45.05;22.52;;;;;;;15.03;70.99;98924.19;5111929;28;20127;-63
2022/10/15 04:24:50;;;;;;;48.05;23.42;;;;;;;15.03;71.08;98921.53;5111855;28;20430;-61
2022/10/15 04:27:17;;;;;;;59.30;21.25;;;;;;;15.03;70.99;98917.03;5111659;28;20051;-60
2022/10/15 04:29:46;;;;;;;45.72;24.10;;;;;;;15.03;71.24;98910.94;5111684;28;20507;-62
2022/10/15 04:32:16;;;;;;;42.25;23.70;;;;;;;15.04;70.88;98917.91;5110559;28;20079;-63
2022/10/15 04:34:45;;;;;;;41.67;23.40;;;;;;;15.05;70.97;98912.47;5110397;28;20052;-61
2022/10/15 04:37:11;;;;;;;59.97;25.35;;;;;;;15.05;70.93;98915.13;5111439;28;20101;-72
2022/10/15 04:39:38;;;;;;;90.80;24.58;;;;;;;15.04;70.80;98902.84;5111416;28;20055;-62
2022/10/15 04:42:05;;;;;;;35.95;23.10;;;;;;;15.03;70.72;98908.28;5111576;28;20483;-60
2022/10/15 04:44:31;;;;;;;59.20;24.15;;;;;;;15.01;70.92;98908.41;5111653;28;20062;-61
2022/10/15 04:46:58;;;;;;;61.97;23.95;;;;;;;15.01;70.72;98912.88;5111729;28;20130;-62
2022/10/15 04:49:24;;;;;;;55.30;24.25;;;;;;;15.00;70.82;98909.38;5111348;28;20100;-60
2022/10/15 04:51:51;;;;;;;147.10;24.35;;;;;;;14.98;70.70;98906.88;5111617;28;20073;-60
2022/10/15 04:54:17;;;;;;;136.70;21.55;;;;;;;14.97;70.71;98902.56;5111329;28;20127;-60
2022/10/15 04:56:44;;;;;;;131.90;21.20;;;;;;;14.96;70.66;98906.16;5111164;28;20048;-62
2022/10/15 04:59:11;;;;;;;157.73;21.83;;;;;;;14.95;70.64;98906.31;5111253;28;20047;-62
2022/10/15 05:01:37;;;;;;;131.50;20.25;;;;;;;14.93;70.78;98906.47;5110955;28;20075;-60
2022/10/15 05:04:04;;;;;;;111.53;20.73;;;;;;;14.93;70.82;98905.59;5109968;28;20048;-61
2022/10/15 05:06:32;;;;;;;109.40;20.92;;;;;;;14.91;70.83;98915.53;5110570;28;20091;-62
2022/10/15 05:09:00;;;;;;;35.03;19.58;;;;;;;14.90;70.62;98916.47;5108258;28;20521;-63
2022/10/15 05:11:28;;;;;;;34.22;20.27;;;;;;;14.89;70.63;98922.75;5109599;28;20105;-62
2022/10/15 05:13:56;;;;;;;32.03;21.17;;;;;;;14.85;70.49;98933.59;5108221;28;20048;-64
2022/10/15 05:16:25;;;;;;;35.85;21.50;;;;;;;14.82;70.47;98933.91;5109757;28;20052;-63
2022/10/15 05:18:56;;;;;;;33.10;21.30;;;;;;;14.80;70.45;98927.06;5109798;28;20077;-61
2022/10/15 05:21:23;;;;;;;35.67;20.05;;;;;;;14.78;70.37;98929.84;5109487;28;20109;-62
2022/10/15 05:23:50;;;;;;;48.17;20.65;;;;;;;14.76;70.47;98938.88;5111052;28;20051;-59
2022/10/15 05:26:20;;;;;;;36.17;19.80;;;;;;;14.72;70.47;98935.63;5111632;28;20047;-62
2022/10/15 05:28:48;;;;;;;59.10;21.08;;;;;;;14.70;70.68;98933.13;5112504;28;20556;-64
2022/10/15 05:31:18;;;;;;;29.63;19.42;;;;;;;14.67;70.78;98928.09;5115043;28;20549;-64
2022/10/15 05:33:49;;;;;;;37.80;20.73;;;;;;;14.65;70.58;98940.63;5113279;28;20703;-63
2022/10/15 05:36:20;;;;;;;29.10;19.05;;;;;;;14.64;70.96;98927.53;5113272;28;20079;-62
2022/10/15 05:38:49;;;;;;;33.63;20.30;;;;;;;14.64;70.88;98933.66;5114819;28;20051;-63
2022/10/15 05:41:16;;;;;;;37.38;21.45;;;;;;;14.64;70.88;98928.38;5113473;28;20047;-61
2022/10/15 05:43:45;;;;;;;37.08;20.80;;;;;;;14.63;70.78;98932.00;5114820;28;20052;-62
2022/10/15 05:46:12;;;;;;;31.98;20.77;;;;;;;14.63;70.75;98936.44;5114623;28;20055;-61
2022/10/15 05:48:39;;;;;;;42.10;21.80;;;;;;;14.63;70.63;98945.25;5114493;28;20055;-61
2022/10/15 05:51:09;;;;;;;37.72;22.88;;;;;;;14.61;70.65;98944.53;5113798;28;20104;-61
2022/10/15 05:53:36;;;;;;;35.70;22.02;;;;;;;14.62;70.86;98950.66;5114117;28;20117;-62
2022/10/15 05:56:04;;;;;;;35.40;21.25;;;;;;;14.61;70.76;98949.81;5113793;28;20047;-63
2022/10/15 05:58:32;;;;;;;35.15;22.60;;;;;;;14.60;70.90;98942.84;5114328;28;20083;-62
2022/10/15 06:01:05;;;;;;;45.50;23.30;;;;;;;14.61;70.76;98946.34;5113647;28;20063;-62
2022/10/15 06:03:32;;;;;;;42.63;22.80;;;;;;;14.59;70.63;98949.94;5113205;28;20086;-61
2022/10/15 06:05:59;;;;;;;43.92;23.95;;;;;;;14.58;70.63;98953.56;5113341;28;20087;-61
2022/10/15 06:08:27;;;;;;;40.75;23.20;;;;;;;14.58;70.69;98952.75;5114377;28;20096;-64
2022/10/15 06:10:55;;;;;;;45.45;21.40;;;;;;;14.57;70.77;98956.34;5113189;28;20059;-62
2022/10/15 06:13:22;;;;;;;38.17;22.17;;;;;;;14.56;70.80;98954.69;5113191;28;20075;-65
2022/10/15 06:15:49;;;;;;;39.38;24.13;;;;;;;14.57;70.91;98961.66;5114079;28;20488;-61
2022/10/15 06:18:15;;;;;;;37.15;22.70;;;;;;;14.56;70.89;98952.88;5113998;28;20134;-61
2022/10/15 06:20:42;;;;;;;37.55;23.00;;;;;;;14.56;70.94;98952.88;5114301;28;20104;-60
2022/10/15 06:23:10;;;;;;;33.08;21.17;;;;;;;14.57;70.83;98961.66;5114119;28;20381;-62
2022/10/15 06:25:37;;;;;;;35.88;22.05;;;;;;;14.58;70.92;98961.53;5112813;28;20051;-61
2022/10/15 06:28:05;;;;;;;40.30;23.35;;;;;;;14.58;70.78;98958.88;5113975;28;20047;-67
2022/10/15 06:30:32;;;;;;;39.38;22.45;;;;;;;14.61;70.86;98970.19;5095775;28;20052;-61
2022/10/15 06:32:59;;;;;;;34.72;22.30;;;;;;;14.61;70.90;98960.41;5113959;28;20085;-61
2022/10/15 06:35:29;;;;;;;35.83;22.70;;;;;;;14.61;70.90;98965.72;5113689;28;20047;-61
2022/10/15 06:37:59;;;;;;;37.85;22.80;;;;;;;14.59;71.08;98968.47;5113578;28;20058;-61
2022/10/15 06:40:29;;;;;;;35.83;21.23;;;;;;;14.63;70.94;98965.56;5113537;28;20043;-62
2022/10/15 06:43:08;;;;;;;34.85;22.15;;;;;;;14.59;71.12;98978.25;5112299;28;20058;-62
2022/10/15 06:45:40;;;;;;;37.78;22.52;;;;;;;14.61;71.04;98976.31;5112540;28;20051;-62
2022/10/15 06:48:08;;;;;;;38.80;22.98;;;;;;;14.62;70.75;98972.72;5113371;28;20468;-60
2022/10/15 06:50:36;;;;;;;37.10;22.67;;;;;;;14.63;70.79;98974.38;5113360;28;20097;-63
2022/10/15 06:53:04;;;;;;;36.47;22.25;;;;;;;14.62;70.77;98972.72;5112286;28;20096;-62
2022/10/15 06:55:30;;;;;;;36.50;22.45;;;;;;;14.62;70.83;98967.41;5111965;28;20040;-60
2022/10/15 06:57:57;;;;;;;37.00;21.80;;;;;;;14.64;71.15;98964.59;5113524;28;20093;-62
2022/10/15 07:00:25;;;;;;;40.42;24.73;;;;;;;14.64;71.09;98962.81;5113184;28;20089;-61
2022/10/15 07:02:52;;;;;;;33.92;21.35;;;;;;;14.67;71.07;98978.44;5112193;28;20051;-62
2022/10/15 07:05:20;;;;;;;39.97;24.02;;;;;;;14.68;71.09;98963.38;5112136;28;20079;-61
2022/10/15 07:07:52;;;;;;;40.20;25.08;;;;;;;14.68;71.13;98969.50;5113056;28;20453;-64
2022/10/15 07:10:18;;;;;;;33.35;21.48;;;;;;;14.72;71.25;98967.41;5113360;28;20560;-61
2022/10/15 07:12:46;;;;;;;39.33;23.75;;;;;;;14.74;71.30;98970.78;5113217;28;20048;-61
2022/10/15 07:15:13;;;;;;;39.33;23.08;;;;;;;14.78;71.26;98976.69;5116712;28;20479;-64
2022/10/15 07:17:48;;;;;;;40.28;24.17;;;;;;;14.78;71.36;98971.38;5111576;28;20069;-61
2022/10/15 07:20:15;;;;;;;39.60;23.95;;;;;;;14.82;71.08;98973.66;5111415;28;20043;-61
2022/10/15 07:22:48;;;;;;;38.47;24.55;;;;;;;14.85;71.08;98983.94;5112839;28;20480;-61
2022/10/15 07:25:15;;;;;;;36.88;24.02;;;;;;;14.87;71.12;98983.81;5112846;28;20083;-64
2022/10/15 07:27:42;;;;;;;41.42;24.90;;;;;;;14.88;71.15;98988.13;5112741;28;20047;-60
2022/10/15 07:30:09;;;;;;;41.10;24.50;;;;;;;14.90;71.15;98986.22;5112334;28;20090;-63
2022/10/15 07:32:36;;;;;;;38.22;23.98;;;;;;;14.93;71.22;98990.41;5111547;28;20507;-61
2022/10/15 07:35:03;;;;;;;41.65;24.35;;;;;;;14.97;71.25;98987.34;5112409;28;20047;-61
2022/10/15 07:37:30;;;;;;;39.47;24.95;;;;;;;14.99;71.49;98979.25;5111320;28;20047;-60
2022/10/15 07:39:57;;;;;;;35.42;22.92;;;;;;;15.04;71.35;98976.19;5112781;28;20449;-61
2022/10/15 07:42:24;;;;;;;36.83;23.92;;;;;;;15.08;71.37;98981.09;5111305;28;20100;-62
2022/10/15 07:44:50;;;;;;;33.97;22.55;;;;;;;15.12;71.26;98981.66;5112553;28;20142;-61
2022/10/15 07:47:17;;;;;;;40.55;23.48;;;;;;;15.14;71.03;98985.00;5112501;28;20463;-61
2022/10/15 07:49:44;;;;;;;37.75;23.67;;;;;;;15.16;71.07;98980.41;5111770;28;20116;-62
2022/10/15 07:52:10;;;;;;;31.33;20.98;;;;;;;15.18;71.48;98975.81;5111950;28;20039;-61
2022/10/15 07:54:37;;;;;;;32.03;21.40;;;;;;;15.20;71.27;98967.72;5112321;28;20090;-61
2022/10/15 07:57:05;;;;;;;36.97;22.33;;;;;;;15.22;71.52;98969.25;5110893;28;20098;-64
2022/10/15 07:59:33;;;;;;;50.72;24.67;;;;;;;15.27;71.52;98975.97;5110777;28;20288;-60
2022/10/15 08:02:00;;;;;;;45.45;24.38;;;;;;;15.29;71.41;98984.63;5112260;28;20051;-62
2022/10/15 08:04:27;;;;;;;52.00;25.20;;;;;;;15.31;71.34;98983.50;5112148;28;20051;-61
2022/10/15 08:06:54;;;;;;;96.72;28.08;;;;;;;15.33;71.23;98986.84;5111930;28;20563;-60
2022/10/15 08:09:20;;;;;;;52.63;22.88;;;;;;;15.33;71.14;98986.84;5114467;28;20059;-63
2022/10/15 08:11:47;;;;;;;77.03;24.70;;;;;;;15.35;71.21;98978.75;5112291;28;20112;-61
2022/10/15 08:14:13;;;;;;;76.97;25.02;;;;;;;15.36;71.37;98985.75;5110538;28;20043;-60
2022/10/15 08:16:40;;;;;;;90.32;25.63;;;;;;;15.36;71.53;98986.59;5111833;28;20048;-64
2022/10/15 08:19:07;;;;;;;109.43;25.95;;;;;;;15.37;71.59;98990.91;5111645;28;20055;-61
2022/10/15 08:21:33;;;;;;;168.05;27.88;;;;;;;15.39;71.54;98984.66;5111849;28;20051;-61
2022/10/15 08:24:00;;;;;;;194.70;28.30;;;;;;;15.40;71.44;98986.31;5112032;28;20104;-61
2022/10/15 08:26:26;;;;;;;273.42;27.77;;;;;;;15.39;71.65;98985.47;5111778;28;20063;-64
2022/10/15 08:28:53;;;;;;;208.95;26.30;;;;;;;15.41;71.70;98978.22;5111584;28;20083;-61
2022/10/15 08:31:20;;;;;;;168.15;25.52;;;;;;;15.43;71.82;98984.22;5112112;28;20480;-61
2022/10/15 08:33:46;;;;;;;165.25;27.80;;;;;;;15.44;72.08;98983.25;5111767;28;20055;-63
2022/10/15 08:36:13;;;;;;;152.77;26.90;;;;;;;15.46;72.10;98976.00;5111838;28;20095;-63
2022/10/15 08:38:39;;;;;;;175.52;29.60;;;;;;;15.50;72.20;98982.69;5110204;28;20123;-60
2022/10/15 08:41:21;;;;;;;206.15;32.30;;;;;;;15.50;72.85;98977.41;5111606;28;20079;-60
2022/10/15 08:43:48;;;;;;;172.98;28.45;;;;;;;15.57;72.22;98977.69;5111774;28;20043;-60
2022/10/15 08:46:24;;;;;;;156.52;30.67;;;;;;;15.59;72.75;98985.50;5111656;28;20134;-60
2022/10/15 08:48:54;;;;;;;128.38;30.27;;;;;;;15.62;72.29;98980.75;5111702;28;20082;-61
2022/10/15 08:51:24;;;;;;;208.20;34.45;;;;;;;15.65;72.40;98982.28;5110305;28;20065;-60
2022/10/15 08:53:56;;;;;;;105.63;33.30;;;;;;;15.68;72.51;98975.84;5111420;28;20496;-60
2022/10/15 08:56:29;;;;;;;76.82;34.88;;;;;;;15.72;72.59;98972.78;5110173;28;20056;-60
2022/10/15 08:59:16;;;;;;;68.68;33.80;;;;;;;15.75;73.03;98979.63;5110369;28;20048;-62
2022/10/15 09:01:57;;;;;;;75.80;35.53;;;;;;;15.79;73.00;98975.72;5111286;28;20094;-61
2022/10/15 09:04:52;;;;;;;63.53;35.35;;;;;;;15.85;73.20;98983.09;5114237;28;20054;-61
2022/10/15 09:07:33;;;;;;;63.75;36.75;;;;;;;15.93;72.76;98993.03;5114761;28;20059;-62
2022/10/15 09:10:09;;;;;;;63.92;37.63;;;;;;;15.96;72.74;98992.75;5114206;28;20441;-61
2022/10/15 09:12:42;;;;;;;66.93;38.60;;;;;;;16.02;72.73;98978.94;5115547;28;20512;-61
2022/10/15 09:15:13;;;;;;;65.55;37.63;;;;;;;16.05;72.57;98976.97;5115352;28;20081;-61
2022/10/15 09:17:43;;;;;;;67.55;37.78;;;;;;;16.08;72.45;98968.72;5115442;28;20106;-62
2022/10/15 09:20:16;;;;;;;60.88;37.80;;;;;;;16.12;72.71;98972.78;5113900;28;20052;-61
2022/10/15 09:22:46;;;;;;;65.68;38.15;;;;;;;16.18;72.66;98974.03;5115276;28;20100;-61
2022/10/15 09:25:15;;;;;;;60.13;37.17;;;;;;;16.22;72.53;98970.91;5113902;28;20055;-60
2022/10/15 09:27:44;;;;;;;61.30;37.80;;;;;;;16.28;72.48;98973.03;5115217;28;20449;-61
2022/10/15 09:30:24;;;;;;;54.58;35.97;;;;;;;16.33;72.61;98964.59;5113936;28;20051;-62
2022/10/15 09:33:16;;;;;;;51.83;34.08;;;;;;;16.34;72.92;98960.13;5115191;28;20052;-61
2022/10/15 09:35:55;;;;;;;55.33;34.92;;;;;;;16.42;72.69;98963.72;5114842;28;20051;-61
2022/10/15 09:38:31;;;;;;;57.85;35.75;;;;;;;16.51;72.25;98971.81;5114915;28;20087;-61
2022/10/15 09:41:23;;;;;;;53.15;33.85;;;;;;;16.56;72.20;98971.38;5114709;28;20130;-60
2022/10/15 09:43:51;;;;;;;53.33;33.77;;;;;;;16.62;72.40;98960.16;5098432;28;20089;-60
2022/10/15 09:46:18;;;;;;;47.78;33.42;;;;;;;16.67;72.53;98963.22;5114578;28;20043;-63
2022/10/15 09:48:52;;;;;;;46.45;33.00;;;;;;;16.71;72.76;98955.81;5114658;28;20044;-61
2022/10/15 09:51:42;;;;;;;46.40;32.78;;;;;;;16.75;72.74;98954.53;5114691;28;20522;-61
2022/10/15 09:54:42;;;;;;;45.60;32.03;;;;;;;16.87;72.34;98963.13;5114549;28;20453;-62
2022/10/15 09:57:11;;;;;;;47.92;31.35;;;;;;;16.95;72.10;98960.56;5113454;28;20051;-61
2022/10/15 09:59:51;;;;;;;43.33;30.92;;;;;;;16.96;71.68;98956.91;5114242;28;20047;-60
2022/10/15 10:02:21;;;;;;;40.78;29.13;;;;;;;17.01;71.26;98954.66;5113357;28;20554;-61
2022/10/15 10:04:48;;;;;;;42.03;30.33;;;;;;;17.03;71.11;98951.84;5113168;28;20055;-61
2022/10/15 10:07:35;;;;;;;37.55;28.27;;;;;;;17.00;71.37;98962.75;5114492;28;20109;-62
2022/10/15 10:10:06;;;;;;;38.38;28.75;;;;;;;17.03;71.03;98955.34;5114067;28;20101;-60
2022/10/15 10:12:36;;;;;;;37.53;27.55;;;;;;;17.01;71.21;98953.81;5113098;28;20055;-61
2022/10/15 10:15:21;;;;;;;38.70;28.13;;;;;;;16.99;71.23;98950.47;5112122;28;20085;-61
2022/10/15 10:17:55;;;;;;;37.30;26.27;;;;;;;17.00;71.14;98950.31;5114466;28;20477;-62
2022/10/15 10:20:24;;;;;;;37.05;25.95;;;;;;;17.04;71.35;98959.72;5113753;28;20486;-61
2022/10/15 10:22:54;;;;;;;35.33;24.83;;;;;;;17.04;71.57;98954.38;5112997;28;20135;-61
2022/10/15 10:25:34;;;;;;;31.45;23.98;;;;;;;17.05;71.87;98945.41;5112754;28;20044;-60
2022/10/15 10:28:10;;;;;;;29.73;23.27;;;;;;;17.14;72.37;98935.72;5113962;28;20096;-60
2022/10/15 10:31:05;;;;;;;27.08;21.92;;;;;;;17.25;72.57;98931.16;5113796;28;20051;-61
2022/10/15 10:33:43;;;;;;;25.42;21.10;;;;;;;17.43;73.88;98920.53;5113812;28;20087;-62
2022/10/15 10:36:20;;;;;;;26.50;19.38;;;;;;;17.62;73.71;98924.00;5113711;28;20396;-61
2022/10/15 10:38:59;;;;;;;21.48;19.15;;;;;;;17.83;73.37;98926.34;5112465;28;20075;-63
2022/10/15 10:41:56;;;;;;;23.00;19.27;;;;;;;18.08;74.23;98932.69;5112658;28;20075;-63
2022/10/15 10:44:33;;;;;;;20.30;17.85;;;;;;;18.35;72.36;98920.19;5112341;28;20098;-62
2022/10/15 10:47:17;;;;;;;21.05;17.98;;;;;;;18.57;71.85;98917.94;5112299;28;20061;-64
2022/10/15 10:49:56;;;;;;;20.42;17.80;;;;;;;18.81;72.06;98910.22;5113460;28;20055;-61
2022/10/15 10:52:26;;;;;;;18.25;16.33;;;;;;;18.99;70.52;98904.75;5112390;28;20051;-60
2022/10/15 10:54:59;;;;;;;20.75;18.08;;;;;;;19.16;70.51;98902.13;5113304;28;20090;-60
2022/10/15 10:57:38;;;;;;;19.45;17.48;;;;;;;19.31;68.93;98908.50;5112216;28;20102;-62
2022/10/15 11:00:07;;;;;;;20.83;18.20;;;;;;;19.44;68.60;98904.50;5113104;28;20131;-61
2022/10/15 11:02:38;;;;;;;19.30;17.35;;;;;;;19.49;67.55;98897.69;5112069;28;20487;-63
2022/10/15 11:05:05;;;;;;;18.50;16.60;;;;;;;19.50;67.22;98894.00;5111893;28;20059;-61
2022/10/15 11:07:48;;;;;;;20.17;16.77;;;;;;;19.44;65.75;98891.97;5112961;28;20052;-61
2022/10/15 11:10:46;;;;;;;20.70;16.55;;;;;;;19.36;65.89;98881.34;5113054;28;20051;-62
2022/10/15 11:13:39;;;;;;;17.50;15.63;;;;;;;19.28;65.30;98884.81;5113121;28;20353;-61
2022/10/15 11:16:12;;;;;;;17.38;15.60;;;;;;;19.26;66.36;98892.97;5113199;28;20121;-63
2022/10/15 11:19:22;;;;;;;18.02;16.13;;;;;;;19.16;66.77;98878.13;5112869;28;20453;-62
2022/10/15 11:22:11;;;;;;;15.60;14.05;;;;;;;19.21;67.16;98870.47;5098623;28;20492;-61
2022/10/15 11:24:46;;;;;;;14.80;13.23;;;;;;;19.27;67.40;98864.47;5112826;28;20561;-62
2022/10/15 11:27:42;;;;;;;15.88;14.38;;;;;;;19.52;70.32;98856.47;5112629;28;20044;-62
2022/10/15 11:30:17;;;;;;;15.35;13.73;;;;;;;19.93;73.07;98853.72;5112566;28;20106;-61
2022/10/15 11:33:02;;;;;;;14.43;13.07;;;;;;;20.52;72.11;98849.03;5112920;28;20091;-61
2022/10/15 11:36:14;;;;;;;13.88;12.48;;;;;;;21.25;69.33;98849.75;5112654;28;20070;-61